Elvira, Illinois
Current Conditions -  °F | °C
As of 11:53 AM on Thursday 27 Nov 2014 (Local Time) from KMWA Reporting Station
Haze Haze  
Wind Chill: 23°   Ceiling: 1400
Heat Index: 32°   Visibility: 5mi
Dew Point: 27°   Wind: 12mph
Humidity: 80%   Direction: 310°NW
Pressure: 30.48"   Gusts: NA
Location:  37.4664°N, 88.9884°W
Report Text: KMWA 271753Z 31010KT 5SM HZ OVC014 00/M03 A3048
Loading
Personal Weather Stations






























Interactive Weather Map New forecast layout! Learn more

10-Day Weather Forecast

Advertisements
Track Severe Weather on mobile